Time,TemperatureF,DewpointF,PressureIn,WindDirection,WindDirectionDegrees,WindSpeedMPH,WindSpeedGustMPH,Humidity,HourlyPrecipIn,Conditions,Clouds,dailyrainin,SoftwareType,DateUTC
2013-09-06 00:00:00,44.2,41.2,30.22,North,0,0.0,0.0,89,0.00,,,0.00,WUHU21623XXSP,2013-09-06 04:00:00,
2013-09-06 00:01:00,44.2,41.2,30.22,North,0,0.0,0.0,89,0.00,,,0.00,WUHU21623XXSP,2013-09-06 04:01:00,
2013-09-06 00:06:00,44.2,41.2,30.22,North,0,0.0,0.0,89,0.00,,,0.00,WUHU21623XXSP,2013-09-06 04:06:00,
2013-09-06 00:11:00,44.2,41.2,30.22,North,0,0.0,0.0,89,0.00,,,0.00,WUHU21623XXSP,2013-09-06 04:11:00,
2013-09-06 00:16:00,44.2,41.2,30.22,North,0,0.0,0.0,89,0.00,,,0.00,WUHU21623XXSP,2013-09-06 04:16:00,
2013-09-06 00:21:00,44.2,41.2,30.22,North,0,0.0,0.0,89,0.00,,,0.00,WUHU21623XXSP,2013-09-06 04:21:00,
2013-09-06 00:26:00,44.2,41.2,30.22,North,0,0.0,0.0,89,0.00,,,0.00,WUHU21623XXSP,2013-09-06 04:26:00,
2013-09-06 00:31:00,44.2,41.5,30.22,North,0,0.0,0.0,90,0.00,,,0.00,WUHU21623XXSP,2013-09-06 04:31:00,
2013-09-06 00:36:00,44.2,41.5,30.22,North,0,0.0,0.0,90,0.00,,,0.00,WUHU21623XXSP,2013-09-06 04:36:00,
2013-09-06 00:41:00,44.2,41.5,30.22,North,0,0.0,0.0,90,0.00,,,0.00,WUHU21623XXSP,2013-09-06 04:41:00,
2013-09-06 00:46:00,44.2,41.5,30.22,North,0,0.0,0.0,90,0.00,,,0.00,WUHU21623XXSP,2013-09-06 04:46:00,
2013-09-06 00:51:00,44.1,41.4,30.22,North,0,0.0,0.0,90,0.00,,,0.00,WUHU21623XXSP,2013-09-06 04:51:00,
2013-09-06 00:56:00,44.1,41.4,30.22,North,0,0.0,0.0,90,0.00,,,0.00,WUHU21623XXSP,2013-09-06 04:56:00,
2013-09-06 01:01:00,43.9,41.2,30.22,North,0,0.0,0.0,90,0.00,,,0.00,WUHU21623XXSP,2013-09-06 05:01:00,
2013-09-06 01:06:00,43.9,41.2,30.22,North,0,0.0,0.0,90,0.00,,,0.00,WUHU21623XXSP,2013-09-06 05:06:00,
2013-09-06 01:11:00,43.9,41.2,30.23,North,0,0.0,0.0,90,0.00,,,0.00,WUHU21623XXSP,2013-09-06 05:11:00,
2013-09-06 01:16:00,43.9,41.2,30.23,North,0,0.0,0.0,90,0.00,,,0.00,WUHU21623XXSP,2013-09-06 05:16:00,
2013-09-06 01:21:00,43.7,41.0,30.23,North,0,0.0,0.0,90,0.00,,,0.00,WUHU21623XXSP,2013-09-06 05:21:00,
2013-09-06 01:26:00,43.7,41.0,30.23,North,0,0.0,0.0,90,0.00,,,0.00,WUHU21623XXSP,2013-09-06 05:26:00,
2013-09-06 01:31:00,43.7,41.0,30.23,North,0,0.0,0.0,90,0.00,,,0.00,WUHU21623XXSP,2013-09-06 05:31:00,
2013-09-06 01:36:00,43.5,41.1,30.23,North,0,0.0,0.0,91,0.00,,,0.00,WUHU21623XXSP,2013-09-06 05:36:00,
2013-09-06 01:41:00,43.3,40.9,30.23,North,0,0.0,0.0,91,0.00,,,0.00,WUHU21623XXSP,2013-09-06 05:41:00,
2013-09-06 01:46:00,43.3,40.9,30.23,North,0,0.0,0.0,91,0.00,,,0.00,WUHU21623XXSP,2013-09-06 05:46:00,
2013-09-06 01:51:00,43.3,40.9,30.23,North,0,0.0,0.0,91,0.00,,,0.00,WUHU21623XXSP,2013-09-06 05:51:00,
2013-09-06 01:56:00,43.3,40.9,30.23,North,0,0.0,0.0,91,0.00,,,0.00,WUHU21623XXSP,2013-09-06 05:56:00,
2013-09-06 02:01:00,43.2,40.7,30.23,North,0,0.0,0.0,91,0.00,,,0.00,WUHU21623XXSP,2013-09-06 06:01:00,
2013-09-06 02:06:00,43.2,40.7,30.22,North,0,0.0,0.0,91,0.00,,,0.00,WUHU21623XXSP,2013-09-06 06:06:00,
2013-09-06 02:11:00,43.0,40.5,30.22,North,0,0.0,0.0,91,0.00,,,0.00,WUHU21623XXSP,2013-09-06 06:11:00,
2013-09-06 02:16:00,43.0,40.5,30.22,North,0,0.0,0.0,91,0.00,,,0.00,WUHU21623XXSP,2013-09-06 06:16:00,
2013-09-06 02:21:00,42.8,40.4,30.23,North,0,0.0,0.0,91,0.00,,,0.00,WUHU21623XXSP,2013-09-06 06:21:00,
2013-09-06 02:26:00,42.6,40.2,30.23,North,0,0.0,0.0,91,0.00,,,0.00,WUHU21623XXSP,2013-09-06 06:26:00,
2013-09-06 02:31:00,42.4,40.0,30.23,North,0,0.0,0.0,91,0.00,,,0.00,WUHU21623XXSP,2013-09-06 06:31:00,
2013-09-06 02:36:00,42.4,40.0,30.23,North,0,0.0,0.0,91,0.00,,,0.00,WUHU21623XXSP,2013-09-06 06:36:00,
2013-09-06 02:41:00,42.4,40.0,30.23,North,0,0.0,0.0,91,0.00,,,0.00,WUHU21623XXSP,2013-09-06 06:41:00,
2013-09-06 02:46:00,42.4,40.0,30.23,North,0,0.0,0.0,91,0.00,,,0.00,WUHU21623XXSP,2013-09-06 06:46:00,
2013-09-06 02:51:00,42.4,40.0,30.23,North,0,0.0,0.0,91,0.00,,,0.00,WUHU21623XXSP,2013-09-06 06:51:00,
2013-09-06 02:56:00,42.3,39.8,30.23,North,0,0.0,0.0,91,0.00,,,0.00,WUHU21623XXSP,2013-09-06 06:56:00,
2013-09-06 03:01:00,42.4,40.0,30.23,North,0,0.0,0.0,91,0.00,,,0.00,WUHU21623XXSP,2013-09-06 07:01:00,
2013-09-06 03:06:00,42.1,39.6,30.23,North,0,0.0,0.0,91,0.00,,,0.00,WUHU21623XXSP,2013-09-06 07:06:00,
2013-09-06 03:11:00,42.1,39.6,30.23,North,0,0.0,0.0,91,0.00,,,0.00,WUHU21623XXSP,2013-09-06 07:11:00,
2013-09-06 03:16:00,41.9,39.5,30.23,North,0,0.0,0.0,91,0.00,,,0.00,WUHU21623XXSP,2013-09-06 07:16:00,
2013-09-06 03:21:00,41.7,39.3,30.23,North,0,0.0,0.0,91,0.00,,,0.00,WUHU21623XXSP,2013-09-06 07:21:00,
2013-09-06 03:26:00,41.7,39.6,30.23,North,0,0.0,0.0,92,0.00,,,0.00,WUHU21623XXSP,2013-09-06 07:26:00,
2013-09-06 03:31:00,41.5,39.4,30.23,North,0,0.0,0.0,92,0.00,,,0.00,WUHU21623XXSP,2013-09-06 07:31:00,
2013-09-06 03:36:00,41.4,39.2,30.23,North,0,0.0,0.0,92,0.00,,,0.00,WUHU21623XXSP,2013-09-06 07:36:00,
2013-09-06 03:41:00,41.4,39.2,30.23,North,0,0.0,0.0,92,0.00,,,0.00,WUHU21623XXSP,2013-09-06 07:41:00,
2013-09-06 03:46:00,41.4,39.2,30.23,North,0,0.0,0.0,92,0.00,,,0.00,WUHU21623XXSP,2013-09-06 07:46:00,
2013-09-06 03:51:00,41.5,39.4,30.23,North,0,0.0,0.0,92,0.00,,,0.00,WUHU21623XXSP,2013-09-06 07:51:00,
2013-09-06 03:56:00,41.5,39.4,30.23,North,0,0.0,0.0,92,0.00,,,0.00,WUHU21623XXSP,2013-09-06 07:56:00,
2013-09-06 04:01:00,41.5,39.4,30.23,North,0,0.0,0.0,92,0.00,,,0.00,WUHU21623XXSP,2013-09-06 08:01:00,
2013-09-06 04:06:00,41.4,39.2,30.23,North,0,0.0,0.0,92,0.00,,,0.00,WUHU21623XXSP,2013-09-06 08:06:00,
2013-09-06 04:11:00,41.2,39.0,30.23,North,0,0.0,0.0,92,0.00,,,0.00,WUHU21623XXSP,2013-09-06 08:11:00,
2013-09-06 04:16:00,40.8,38.7,30.23,North,0,0.0,0.0,92,0.00,,,0.00,WUHU21623XXSP,2013-09-06 08:16:00,
2013-09-06 04:21:00,40.8,38.7,30.23,North,0,0.0,0.0,92,0.00,,,0.00,WUHU21623XXSP,2013-09-06 08:21:00,
2013-09-06 04:26:00,41.0,38.8,30.24,North,0,0.0,0.0,92,0.00,,,0.00,WUHU21623XXSP,2013-09-06 08:26:00,
2013-09-06 04:31:00,41.0,38.8,30.23,North,0,0.0,0.0,92,0.00,,,0.00,WUHU21623XXSP,2013-09-06 08:31:00,
2013-09-06 04:36:00,41.0,38.8,30.24,North,0,0.0,0.0,92,0.00,,,0.00,WUHU21623XXSP,2013-09-06 08:36:00,
2013-09-06 04:41:00,40.8,38.7,30.23,North,0,0.0,0.0,92,0.00,,,0.00,WUHU21623XXSP,2013-09-06 08:41:00,
2013-09-06 04:46:00,40.8,38.7,30.23,North,0,0.0,0.0,92,0.00,,,0.00,WUHU21623XXSP,2013-09-06 08:46:00,
2013-09-06 04:51:00,40.8,38.7,30.23,North,0,0.0,0.0,92,0.00,,,0.00,WUHU21623XXSP,2013-09-06 08:51:00,
2013-09-06 04:56:00,40.6,38.5,30.24,North,0,0.0,0.0,92,0.00,,,0.00,WUHU21623XXSP,2013-09-06 08:56:00,
2013-09-06 05:01:00,40.3,38.1,30.24,North,0,0.0,0.0,92,0.00,,,0.00,WUHU21623XXSP,2013-09-06 09:01:00,
2013-09-06 05:06:00,40.1,37.9,30.24,North,0,0.0,0.0,92,0.00,,,0.00,WUHU21623XXSP,2013-09-06 09:06:00,
2013-09-06 05:11:00,40.1,37.9,30.24,North,0,0.0,0.0,92,0.00,,,0.00,WUHU21623XXSP,2013-09-06 09:11:00,
2013-09-06 05:16:00,40.1,37.9,30.24,North,0,0.0,0.0,92,0.00,,,0.00,WUHU21623XXSP,2013-09-06 09:16:00,
2013-09-06 05:21:00,40.3,38.1,30.24,North,0,0.0,0.0,92,0.00,,,0.00,WUHU21623XXSP,2013-09-06 09:21:00,
2013-09-06 05:26:00,40.5,38.3,30.24,North,0,0.0,0.0,92,0.00,,,0.00,WUHU21623XXSP,2013-09-06 09:26:00,
2013-09-06 05:31:00,40.5,38.3,30.24,North,0,0.0,0.0,92,0.00,,,0.00,WUHU21623XXSP,2013-09-06 09:31:00,
2013-09-06 05:36:00,40.3,38.1,30.24,North,0,0.0,0.0,92,0.00,,,0.00,WUHU21623XXSP,2013-09-06 09:36:00,
2013-09-06 05:41:00,40.1,38.2,30.24,North,0,0.0,0.0,93,0.00,,,0.00,WUHU21623XXSP,2013-09-06 09:41:00,
2013-09-06 05:46:00,39.9,38.0,30.24,North,0,0.0,0.0,93,0.00,,,0.00,WUHU21623XXSP,2013-09-06 09:46:00,
2013-09-06 05:51:00,39.9,38.0,30.24,North,0,0.0,0.0,93,0.00,,,0.00,WUHU21623XXSP,2013-09-06 09:51:00,
2013-09-06 05:55:00,40.1,38.2,30.24,North,0,0.0,0.0,93,0.00,,,0.00,WUHU21623XXSP,2013-09-06 09:55:00,
2013-09-06 06:00:00,40.1,38.2,30.25,North,0,0.0,0.0,93,0.00,,,0.00,WUHU21623XXSP,2013-09-06 10:00:00,
2013-09-06 06:05:00,39.9,38.0,30.25,North,0,0.0,0.0,93,0.00,,,0.00,WUHU21623XXSP,2013-09-06 10:05:00,
2013-09-06 06:10:00,39.9,38.0,30.25,North,0,0.0,0.0,93,0.00,,,0.00,WUHU21623XXSP,2013-09-06 10:10:00,
2013-09-06 06:15:00,39.7,37.9,30.25,North,0,0.0,0.0,93,0.00,,,0.00,WUHU21623XXSP,2013-09-06 10:15:00,
2013-09-06 06:20:00,39.7,37.9,30.25,North,0,0.0,0.0,93,0.00,,,0.00,WUHU21623XXSP,2013-09-06 10:20:00,
2013-09-06 06:25:00,39.6,37.7,30.25,North,0,0.0,0.0,93,0.00,,,0.00,WUHU21623XXSP,2013-09-06 10:25:00,
2013-09-06 06:30:00,39.6,37.7,30.26,North,0,0.0,0.0,93,0.00,,,0.00,WUHU21623XXSP,2013-09-06 10:30:00,
2013-09-06 06:35:00,39.4,37.5,30.25,North,0,0.0,0.0,93,0.00,,,0.00,WUHU21623XXSP,2013-09-06 10:35:00,
2013-09-06 06:40:00,39.4,37.5,30.25,North,0,0.0,0.0,93,0.00,,,0.00,WUHU21623XXSP,2013-09-06 10:40:00,
2013-09-06 06:45:00,39.4,37.5,30.25,North,0,0.0,0.0,93,0.00,,,0.00,WUHU21623XXSP,2013-09-06 10:45:00,
2013-09-06 06:50:00,39.6,37.7,30.26,North,0,0.0,0.0,93,0.00,,,0.00,WUHU21623XXSP,2013-09-06 10:50:00,
2013-09-06 06:55:00,39.6,37.7,30.25,North,0,0.0,0.0,93,0.00,,,0.00,WUHU21623XXSP,2013-09-06 10:55:00,
2013-09-06 07:00:00,39.6,37.7,30.26,North,0,0.0,0.0,93,0.00,,,0.00,WUHU21623XXSP,2013-09-06 11:00:00,
2013-09-06 07:05:00,39.7,37.9,30.26,North,0,0.0,0.0,93,0.00,,,0.00,WUHU21623XXSP,2013-09-06 11:05:00,
2013-09-06 07:10:00,39.9,38.0,30.26,North,0,0.0,0.0,93,0.00,,,0.00,WUHU21623XXSP,2013-09-06 11:10:00,
2013-09-06 07:15:00,40.3,38.4,30.26,North,0,0.0,0.0,93,0.00,,,0.00,WUHU21623XXSP,2013-09-06 11:15:00,
2013-09-06 07:20:00,40.8,38.9,30.26,North,0,0.0,0.0,93,0.00,,,0.00,WUHU21623XXSP,2013-09-06 11:20:00,
2013-09-06 07:25:00,41.5,39.9,30.25,North,0,0.0,0.0,94,0.00,,,0.00,WUHU21623XXSP,2013-09-06 11:25:00,
2013-09-06 07:30:00,42.4,40.8,30.26,North,0,0.0,0.0,94,0.00,,,0.00,WUHU21623XXSP,2013-09-06 11:30:00,
2013-09-06 07:35:00,43.2,41.5,30.26,North,0,0.0,0.0,94,0.00,,,0.00,WUHU21623XXSP,2013-09-06 11:35:00,
2013-09-06 07:40:00,43.7,42.1,30.26,North,0,0.0,0.0,94,0.00,,,0.00,WUHU21623XXSP,2013-09-06 11:40:00,
2013-09-06 07:45:00,44.4,42.8,30.26,North,0,0.0,0.0,94,0.00,,,0.00,WUHU21623XXSP,2013-09-06 11:45:00,
2013-09-06 07:50:00,45.3,43.7,30.26,North,0,0.0,0.0,94,0.00,,,0.00,WUHU21623XXSP,2013-09-06 11:50:00,
2013-09-06 07:55:00,46.0,44.4,30.26,North,0,0.0,0.0,94,0.00,,,0.00,WUHU21623XXSP,2013-09-06 11:55:00,
2013-09-06 08:00:00,46.6,45.0,30.26,North,0,0.0,0.0,94,0.00,,,0.00,WUHU21623XXSP,2013-09-06 12:00:00,
2013-09-06 08:05:00,47.3,45.7,30.26,North,0,0.0,0.0,94,0.00,,,0.00,WUHU21623XXSP,2013-09-06 12:05:00,
2013-09-06 08:10:00,48.2,46.6,30.26,North,0,0.0,0.0,94,0.00,,,0.00,WUHU21623XXSP,2013-09-06 12:10:00,
2013-09-06 08:15:00,49.1,47.4,30.26,North,0,0.0,0.0,94,0.00,,,0.00,WUHU21623XXSP,2013-09-06 12:15:00,
2013-09-06 08:20:00,50.2,48.5,30.26,North,0,0.0,0.0,94,0.00,,,0.00,WUHU21623XXSP,2013-09-06 12:20:00,
2013-09-06 08:25:00,50.9,49.2,30.26,North,0,0.0,0.0,94,0.00,,,0.00,WUHU21623XXSP,2013-09-06 12:25:00,
2013-09-06 08:30:00,51.6,49.6,30.26,North,0,0.0,0.0,93,0.00,,,0.00,WUHU21623XXSP,2013-09-06 12:30:00,
2013-09-06 08:35:00,52.3,50.0,30.26,North,0,0.0,0.0,92,0.00,,,0.00,WUHU21623XXSP,2013-09-06 12:35:00,
2013-09-06 08:40:00,53.2,50.9,30.26,North,0,0.0,0.0,92,0.00,,,0.00,WUHU21623XXSP,2013-09-06 12:40:00,
2013-09-06 08:45:00,54.1,51.8,30.26,North,0,0.0,0.0,92,0.00,,,0.00,WUHU21623XXSP,2013-09-06 12:45:00,
2013-09-06 08:50:00,54.9,52.0,30.26,North,0,0.0,0.0,90,0.00,,,0.00,WUHU21623XXSP,2013-09-06 12:50:00,
2013-09-06 08:55:00,55.2,52.0,30.26,North,0,0.0,0.0,89,0.00,,,0.00,WUHU21623XXSP,2013-09-06 12:55:00,
2013-09-06 09:00:00,56.1,52.6,30.26,North,0,0.0,0.0,88,0.00,,,0.00,WUHU21623XXSP,2013-09-06 13:00:00,
2013-09-06 09:05:00,56.8,53.0,30.26,North,0,0.0,0.0,87,0.00,,,0.00,WUHU21623XXSP,2013-09-06 13:05:00,
2013-09-06 09:10:00,57.9,53.7,30.26,North,0,0.0,0.0,86,0.00,,,0.00,WUHU21623XXSP,2013-09-06 13:10:00,
2013-09-06 09:15:00,58.5,54.0,30.26,NNW,337,0.0,0.0,85,0.00,,,0.00,WUHU21623XXSP,2013-09-06 13:15:00,
2013-09-06 09:20:00,59.2,54.0,30.26,WNW,292,0.0,0.0,83,0.00,,,0.00,WUHU21623XXSP,2013-09-06 13:20:00,
2013-09-06 09:25:00,60.1,54.3,30.26,SSW,202,0.0,5.4,81,0.00,,,0.00,WUHU21623XXSP,2013-09-06 13:25:00,
2013-09-06 09:30:00,60.6,54.1,30.26,SSW,202,0.0,5.4,79,0.00,,,0.00,WUHU21623XXSP,2013-09-06 13:30:00,
2013-09-06 09:35:00,61.2,53.9,30.26,SSW,202,0.0,0.0,77,0.00,,,0.00,WUHU21623XXSP,2013-09-06 13:35:00,
2013-09-06 09:40:00,61.7,54.0,30.26,SSW,202,1.3,1.3,76,0.00,,,0.00,WUHU21623XXSP,2013-09-06 13:40:00,
2013-09-06 09:45:00,62.2,53.5,30.26,SSW,202,0.0,3.1,73,0.00,,,0.00,WUHU21623XXSP,2013-09-06 13:45:00,
2013-09-06 09:50:00,62.8,53.2,30.26,SW,225,0.0,5.8,71,0.00,,,0.00,WUHU21623XXSP,2013-09-06 13:50:00,
2013-09-06 09:55:00,63.0,52.2,30.26,SSW,202,2.7,7.2,68,0.00,,,0.00,WUHU21623XXSP,2013-09-06 13:55:00,
2013-09-06 10:00:00,63.1,52.0,30.26,SSW,202,3.1,8.7,67,0.00,,,0.00,WUHU21623XXSP,2013-09-06 14:00:00,
2013-09-06 10:05:00,63.1,51.1,30.26,SSW,202,0.0,11.9,65,0.00,,,0.00,WUHU21623XXSP,2013-09-06 14:05:00,
2013-09-06 10:10:00,63.1,50.7,30.26,SSW,202,0.0,11.9,64,0.00,,,0.00,WUHU21623XXSP,2013-09-06 14:10:00,
2013-09-06 10:15:00,63.7,51.2,30.26,SSW,202,6.0,9.2,64,0.00,,,0.00,WUHU21623XXSP,2013-09-06 14:15:00,
2013-09-06 10:20:00,64.0,51.1,30.26,SSW,202,11.0,11.4,63,0.00,,,0.00,WUHU21623XXSP,2013-09-06 14:20:00,
2013-09-06 10:25:00,64.0,50.7,30.26,SW,225,0.0,11.4,62,0.00,,,0.00,WUHU21623XXSP,2013-09-06 14:25:00,
2013-09-06 10:30:00,64.0,49.9,30.26,South,180,3.4,8.9,60,0.00,,,0.00,WUHU21623XXSP,2013-09-06 14:30:00,
2013-09-06 10:35:00,64.0,49.9,30.26,WNW,292,2.5,8.9,60,0.00,,,0.00,WUHU21623XXSP,2013-09-06 14:35:00,
2013-09-06 10:40:00,64.0,49.9,30.26,WNW,292,0.0,8.9,60,0.00,,,0.00,WUHU21623XXSP,2013-09-06 14:40:00,
2013-09-06 10:45:00,64.2,49.5,30.26,West,270,0.0,3.1,59,0.00,,,0.00,WUHU21623XXSP,2013-09-06 14:45:00,
2013-09-06 10:50:00,64.2,49.0,30.26,West,270,0.0,4.5,58,0.00,,,0.00,WUHU21623XXSP,2013-09-06 14:50:00,
2013-09-06 10:55:00,64.9,50.2,30.26,SW,225,0.0,6.7,59,0.00,,,0.00,WUHU21623XXSP,2013-09-06 14:55:00,
2013-09-06 11:00:00,65.3,50.6,30.26,West,270,2.5,9.6,59,0.00,,,0.00,WUHU21623XXSP,2013-09-06 15:00:00,
2013-09-06 11:05:00,65.5,50.3,30.26,SW,225,3.1,11.4,58,0.00,,,0.00,WUHU21623XXSP,2013-09-06 15:05:00,
2013-09-06 11:10:00,65.7,51.0,30.26,SSW,202,6.9,11.4,59,0.00,,,0.00,WUHU21623XXSP,2013-09-06 15:10:00,
2013-09-06 11:15:00,65.5,50.3,30.26,SSW,202,9.6,10.3,58,0.00,,,0.00,WUHU21623XXSP,2013-09-06 15:15:00,
2013-09-06 11:20:00,65.7,50.5,30.26,SW,225,1.1,11.4,58,0.00,,,0.00,WUHU21623XXSP,2013-09-06 15:20:00,
2013-09-06 11:25:00,65.3,50.1,30.26,SSW,202,2.0,11.6,58,0.00,,,0.00,WUHU21623XXSP,2013-09-06 15:25:00,
2013-09-06 11:30:00,65.3,50.1,30.25,South,180,3.6,11.6,58,0.00,,,0.00,WUHU21623XXSP,2013-09-06 15:30:00,
2013-09-06 11:35:00,65.3,49.6,30.25,South,180,6.9,9.8,57,0.00,,,0.00,WUHU21623XXSP,2013-09-06 15:35:00,
2013-09-06 11:40:00,65.7,50.0,30.25,SW,225,7.4,12.5,57,0.00,,,0.00,WUHU21623XXSP,2013-09-06 15:40:00,
2013-09-06 11:45:00,66.0,49.4,30.25,SW,225,3.8,12.5,55,0.00,,,0.00,WUHU21623XXSP,2013-09-06 15:45:00,
2013-09-06 11:50:00,66.0,49.4,30.25,SSW,202,9.4,10.7,55,0.00,,,0.00,WUHU21623XXSP,2013-09-06 15:50:00,
2013-09-06 11:55:00,66.2,49.1,30.25,SSW,202,3.8,10.7,54,0.00,,,0.00,WUHU21623XXSP,2013-09-06 15:55:00,
2013-09-06 12:00:00,66.6,49.4,30.24,SW,225,4.5,10.5,54,0.00,,,0.00,WUHU21623XXSP,2013-09-06 16:00:00,
2013-09-06 12:05:00,66.7,49.5,30.24,West,270,2.0,8.1,54,0.00,,,0.00,WUHU21623XXSP,2013-09-06 16:05:00,
2013-09-06 12:10:00,66.6,49.4,30.24,SSW,202,8.1,11.0,54,0.00,,,0.00,WUHU21623XXSP,2013-09-06 16:10:00,
2013-09-06 12:15:00,66.6,48.9,30.24,SW,225,2.9,12.1,53,0.00,,,0.00,WUHU21623XXSP,2013-09-06 16:15:00,
2013-09-06 12:20:00,66.7,49.1,30.24,SW,225,2.0,13.0,53,0.00,,,0.00,WUHU21623XXSP,2013-09-06 16:20:00,
2013-09-06 12:25:00,66.4,48.3,30.23,SSW,202,2.2,13.0,52,0.00,,,0.00,WUHU21623XXSP,2013-09-06 16:25:00,
2013-09-06 12:30:00,66.7,49.1,30.23,SW,225,9.4,11.0,53,0.00,,,0.00,WUHU21623XXSP,2013-09-06 16:30:00,
2013-09-06 12:35:00,66.9,49.2,30.23,WSW,247,6.0,11.0,53,0.00,,,0.00,WUHU21623XXSP,2013-09-06 16:35:00,
2013-09-06 12:40:00,67.3,50.0,30.23,South,180,6.7,11.4,54,0.00,,,0.00,WUHU21623XXSP,2013-09-06 16:40:00,
2013-09-06 12:45:00,67.8,50.0,30.22,SSW,202,9.6,11.4,53,0.00,,,0.00,WUHU21623XXSP,2013-09-06 16:45:00,
2013-09-06 12:50:00,67.8,49.1,30.23,SW,225,6.7,9.6,51,0.00,,,0.00,WUHU21623XXSP,2013-09-06 16:50:00,
2013-09-06 12:55:00,67.6,49.4,30.22,SSW,202,4.5,9.4,52,0.00,,,0.00,WUHU21623XXSP,2013-09-06 16:55:00,
2013-09-06 13:00:00,67.8,49.5,30.22,West,270,0.9,11.9,52,0.00,,,0.00,WUHU21623XXSP,2013-09-06 17:00:00,
2013-09-06 13:05:00,67.6,49.4,30.22,NNW,337,0.0,11.9,52,0.00,,,0.00,WUHU21623XXSP,2013-09-06 17:05:00,
2013-09-06 13:10:00,67.8,50.5,30.22,WSW,247,2.2,10.7,54,0.00,,,0.00,WUHU21623XXSP,2013-09-06 17:10:00,
2013-09-06 13:15:00,67.8,49.5,30.22,WNW,292,0.0,10.7,52,0.00,,,0.00,WUHU21623XXSP,2013-09-06 17:15:00,
2013-09-06 13:20:00,67.8,50.0,30.21,SW,225,1.6,8.9,53,0.00,,,0.00,WUHU21623XXSP,2013-09-06 17:20:00,
2013-09-06 13:25:00,68.2,49.9,30.21,SSW,202,6.7,11.0,52,0.00,,,0.00,WUHU21623XXSP,2013-09-06 17:25:00,
2013-09-06 13:30:00,68.5,50.2,30.21,SSW,202,3.4,11.2,52,0.00,,,0.00,WUHU21623XXSP,2013-09-06 17:30:00,
2013-09-06 13:35:00,68.7,50.4,30.21,SSW,202,2.0,11.2,52,0.00,,,0.00,WUHU21623XXSP,2013-09-06 17:35:00,
2013-09-06 13:40:00,68.9,51.0,30.21,SW,225,9.6,11.0,53,0.00,,,0.00,WUHU21623XXSP,2013-09-06 17:40:00,
2013-09-06 13:45:00,69.4,51.5,30.21,SSW,202,1.6,11.0,53,0.00,,,0.00,WUHU21623XXSP,2013-09-06 17:45:00,
2013-09-06 13:50:00,69.6,52.2,30.21,WNW,292,5.8,11.2,54,0.00,,,0.00,WUHU21623XXSP,2013-09-06 17:50:00,
2013-09-06 13:55:00,69.6,51.7,30.21,SSW,202,2.0,11.2,53,0.00,,,0.00,WUHU21623XXSP,2013-09-06 17:55:00,
2013-09-06 14:00:00,70.0,51.5,30.21,WNW,292,2.9,9.2,52,0.00,,,0.00,WUHU21623XXSP,2013-09-06 18:00:00,
2013-09-06 14:05:00,70.3,51.9,30.20,SW,225,9.8,9.8,52,0.00,,,0.00,WUHU21623XXSP,2013-09-06 18:05:00,
2013-09-06 14:10:00,70.2,51.7,30.20,SW,225,4.7,9.8,52,0.00,,,0.00,WUHU21623XXSP,2013-09-06 18:10:00,
2013-09-06 14:15:00,70.0,51.5,30.20,West,270,0.0,13.4,52,0.00,,,0.00,WUHU21623XXSP,2013-09-06 18:15:00,
2013-09-06 14:20:00,70.0,51.5,30.20,South,180,6.9,13.4,52,0.00,,,0.00,WUHU21623XXSP,2013-09-06 18:20:00,
2013-09-06 14:25:00,70.3,51.9,30.20,SW,225,5.4,11.9,52,0.00,,,0.00,WUHU21623XXSP,2013-09-06 18:25:00,
2013-09-06 14:30:00,70.2,51.7,30.19,SSW,202,0.0,12.3,52,0.00,,,0.00,WUHU21623XXSP,2013-09-06 18:30:00,
2013-09-06 14:35:00,70.2,51.7,30.19,SW,225,0.0,12.3,52,0.00,,,0.00,WUHU21623XXSP,2013-09-06 18:35:00,
2013-09-06 14:40:00,70.2,51.7,30.19,SSW,202,4.9,11.4,52,0.00,,,0.00,WUHU21623XXSP,2013-09-06 18:40:00,
2013-09-06 14:45:00,70.3,51.9,30.19,SW,225,2.9,11.4,52,0.00,,,0.00,WUHU21623XXSP,2013-09-06 18:45:00,
2013-09-06 14:50:00,70.3,51.9,30.18,SW,225,8.5,11.0,52,0.00,,,0.00,WUHU21623XXSP,2013-09-06 18:50:00,
2013-09-06 14:55:00,70.3,51.9,30.18,West,270,6.5,11.4,52,0.00,,,0.00,WUHU21623XXSP,2013-09-06 18:55:00,
2013-09-06 15:00:00,70.5,52.0,30.18,WSW,247,6.0,13.0,52,0.00,,,0.00,WUHU21623XXSP,2013-09-06 19:00:00,
2013-09-06 15:05:00,70.5,52.0,30.18,SW,225,9.4,13.0,52,0.00,,,0.00,WUHU21623XXSP,2013-09-06 19:05:00,
2013-09-06 15:10:00,70.7,52.2,30.18,West,270,4.9,11.9,52,0.00,,,0.00,WUHU21623XXSP,2013-09-06 19:10:00,
2013-09-06 15:15:00,70.9,51.8,30.18,SW,225,8.9,13.9,51,0.00,,,0.00,WUHU21623XXSP,2013-09-06 19:15:00,
2013-09-06 15:20:00,70.9,51.3,30.17,SW,225,5.8,13.9,50,0.00,,,0.00,WUHU21623XXSP,2013-09-06 19:20:00,
2013-09-06 15:25:00,71.2,51.7,30.17,SSW,202,8.7,11.6,50,0.00,,,0.00,WUHU21623XXSP,2013-09-06 19:25:00,
2013-09-06 15:30:00,71.2,51.7,30.17,SW,225,3.4,11.6,50,0.00,,,0.00,WUHU21623XXSP,2013-09-06 19:30:00,
2013-09-06 15:35:00,71.4,51.2,30.16,West,270,6.3,10.5,49,0.00,,,0.00,WUHU21623XXSP,2013-09-06 19:35:00,
2013-09-06 15:40:00,70.3,50.8,30.17,SW,225,7.4,13.0,50,0.00,,,0.00,WUHU21623XXSP,2013-09-06 19:40:00,
2013-09-06 15:45:00,70.3,50.8,30.17,SW,225,2.7,13.0,50,0.00,,,0.00,WUHU21623XXSP,2013-09-06 19:45:00,
2013-09-06 15:50:00,70.7,51.2,30.17,SSW,202,4.9,11.9,50,0.00,,,0.00,WUHU21623XXSP,2013-09-06 19:50:00,
2013-09-06 15:55:00,70.9,50.1,30.17,WSW,247,5.8,12.3,48,0.00,,,0.00,WUHU21623XXSP,2013-09-06 19:55:00,
2013-09-06 16:00:00,70.3,49.7,30.17,WSW,247,4.7,12.3,48,0.00,,,0.00,WUHU21623XXSP,2013-09-06 20:00:00,
2013-09-06 16:05:00,70.0,49.9,30.17,West,270,0.0,11.2,49,0.00,,,0.00,WUHU21623XXSP,2013-09-06 20:05:00,
2013-09-06 16:10:00,70.3,50.3,30.16,West,270,2.5,11.0,49,0.00,,,0.00,WUHU21623XXSP,2013-09-06 20:10:00,
2013-09-06 16:15:00,70.0,49.3,30.16,West,270,0.0,11.0,48,0.00,,,0.00,WUHU21623XXSP,2013-09-06 20:15:00,
2013-09-06 16:19:00,70.0,48.1,30.16,WSW,247,7.8,9.8,46,0.00,,,0.00,WUHU21623XXSP,2013-09-06 20:19:00,
2013-09-06 16:24:00,70.5,48.0,30.16,SW,225,13.0,13.0,45,0.00,,,0.00,WUHU21623XXSP,2013-09-06 20:24:00,
2013-09-06 16:29:00,70.9,48.4,30.16,WNW,292,3.4,13.0,45,0.00,,,0.00,WUHU21623XXSP,2013-09-06 20:29:00,
2013-09-06 16:34:00,70.9,48.4,30.15,West,270,0.0,13.0,45,0.00,,,0.00,WUHU21623XXSP,2013-09-06 20:34:00,
2013-09-06 16:39:00,70.5,48.6,30.15,SSW,202,9.2,9.4,46,0.00,,,0.00,WUHU21623XXSP,2013-09-06 20:39:00,
2013-09-06 16:44:00,70.2,48.9,30.15,SSW,202,5.6,12.5,47,0.00,,,0.00,WUHU21623XXSP,2013-09-06 20:44:00,
2013-09-06 16:49:00,70.5,48.6,30.15,South,180,0.2,12.5,46,0.00,,,0.00,WUHU21623XXSP,2013-09-06 20:49:00,
2013-09-06 16:54:00,70.5,48.6,30.15,SSW,202,3.1,9.8,46,0.00,,,0.00,WUHU21623XXSP,2013-09-06 20:54:00,
2013-09-06 16:59:00,70.3,47.3,30.15,SSW,202,0.0,9.8,44,0.00,,,0.00,WUHU21623XXSP,2013-09-06 20:59:00,
2013-09-06 17:04:00,69.1,45.6,30.15,SW,225,6.0,9.6,43,0.00,,,0.00,WUHU21623XXSP,2013-09-06 21:04:00,
2013-09-06 17:09:00,69.3,45.7,30.15,SW,225,0.0,10.1,43,0.00,,,0.00,WUHU21623XXSP,2013-09-06 21:09:00,
2013-09-06 17:14:00,69.6,46.6,30.15,WNW,292,0.0,10.1,44,0.00,,,0.00,WUHU21623XXSP,2013-09-06 21:14:00,
2013-09-06 17:19:00,70.3,46.7,30.15,WSW,247,5.8,11.6,43,0.00,,,0.00,WUHU21623XXSP,2013-09-06 21:19:00,
2013-09-06 17:24:00,70.2,46.5,30.15,SSW,202,3.4,11.6,43,0.00,,,0.00,WUHU21623XXSP,2013-09-06 21:24:00,
2013-09-06 17:29:00,70.0,47.6,30.14,SSW,202,2.9,10.3,45,0.00,,,0.00,WUHU21623XXSP,2013-09-06 21:29:00,
2013-09-06 17:34:00,69.8,47.4,30.15,WSW,247,0.0,7.6,45,0.00,,,0.00,WUHU21623XXSP,2013-09-06 21:34:00,
2013-09-06 17:39:00,69.4,47.7,30.15,WNW,292,0.0,11.0,46,0.00,,,0.00,WUHU21623XXSP,2013-09-06 21:39:00,
2013-09-06 17:44:00,68.5,47.4,30.15,WNW,292,0.0,11.0,47,0.00,,,0.00,WUHU21623XXSP,2013-09-06 21:44:00,
2013-09-06 17:49:00,67.8,46.8,30.15,West,270,0.0,5.6,47,0.00,,,0.00,WUHU21623XXSP,2013-09-06 21:49:00,
2013-09-06 17:54:00,67.8,46.2,30.15,WSW,247,0.0,6.0,46,0.00,,,0.00,WUHU21623XXSP,2013-09-06 21:54:00,
2013-09-06 17:59:00,69.1,46.7,30.15,SW,225,4.3,6.0,45,0.00,,,0.00,WUHU21623XXSP,2013-09-06 21:59:00,
2013-09-06 18:04:00,69.6,46.0,30.15,West,270,0.0,4.3,43,0.00,,,0.00,WUHU21623XXSP,2013-09-06 22:04:00,
2013-09-06 18:09:00,70.0,45.8,30.15,SW,225,0.0,6.9,42,0.00,,,0.00,WUHU21623XXSP,2013-09-06 22:09:00,
2013-09-06 18:14:00,69.6,46.6,30.15,WSW,247,0.0,6.9,44,0.00,,,0.00,WUHU21623XXSP,2013-09-06 22:14:00,
2013-09-06 18:19:00,70.2,47.1,30.15,WSW,247,0.0,6.7,44,0.00,,,0.00,WUHU21623XXSP,2013-09-06 22:19:00,
2013-09-06 18:24:00,68.9,46.6,30.14,WNW,292,0.0,6.7,45,0.00,,,0.00,WUHU21623XXSP,2013-09-06 22:24:00,
2013-09-06 18:29:00,67.6,45.4,30.15,WSW,247,4.3,6.9,45,0.00,,,0.00,WUHU21623XXSP,2013-09-06 22:29:00,
2013-09-06 18:34:00,66.9,45.4,30.15,West,270,0.0,6.9,46,0.00,,,0.00,WUHU21623XXSP,2013-09-06 22:34:00,
2013-09-06 18:39:00,66.7,45.8,30.14,SW,225,4.0,4.9,47,0.00,,,0.00,WUHU21623XXSP,2013-09-06 22:39:00,
2013-09-06 18:44:00,66.7,46.4,30.13,SW,225,0.0,4.0,48,0.00,,,0.00,WUHU21623XXSP,2013-09-06 22:44:00,
2013-09-06 18:49:00,66.7,46.4,30.13,SW,225,0.0,4.0,48,0.00,,,0.00,WUHU21623XXSP,2013-09-06 22:49:00,
2013-09-06 18:54:00,66.9,47.8,30.13,SW,225,0.0,0.0,50,0.00,,,0.00,WUHU21623XXSP,2013-09-06 22:54:00,
2013-09-06 18:59:00,66.6,47.9,30.13,SW,225,0.0,0.0,51,0.00,,,0.00,WUHU21623XXSP,2013-09-06 22:59:00,
2013-09-06 19:04:00,66.0,47.9,30.13,SW,225,0.0,0.0,52,0.00,,,0.00,WUHU21623XXSP,2013-09-06 23:04:00,
2013-09-06 19:09:00,65.5,47.4,30.14,SW,225,0.0,0.0,52,0.00,,,0.00,WUHU21623XXSP,2013-09-06 23:09:00,
2013-09-06 19:14:00,64.9,47.3,30.14,SW,225,0.0,4.0,53,0.00,,,0.00,WUHU21623XXSP,2013-09-06 23:14:00,
2013-09-06 19:19:00,64.6,47.4,30.15,SW,225,0.0,4.0,54,0.00,,,0.00,WUHU21623XXSP,2013-09-06 23:19:00,
2013-09-06 19:24:00,64.2,47.6,30.15,SW,225,0.0,0.0,55,0.00,,,0.00,WUHU21623XXSP,2013-09-06 23:24:00,
2013-09-06 19:30:00,63.5,47.4,30.14,SW,225,0.0,0.0,56,0.00,,,0.00,WUHU21623XXSP,2013-09-06 23:30:00,
2013-09-06 19:35:00,63.1,47.6,30.14,SW,225,0.0,0.0,57,0.00,,,0.00,WUHU21623XXSP,2013-09-06 23:35:00,
2013-09-06 19:40:00,62.4,47.9,30.14,SW,225,0.0,0.0,59,0.00,,,0.00,WUHU21623XXSP,2013-09-06 23:40:00,
2013-09-06 19:45:00,61.7,48.2,30.13,SW,225,0.0,0.0,61,0.00,,,0.00,WUHU21623XXSP,2013-09-06 23:45:00,
2013-09-06 19:50:00,61.2,47.7,30.14,SW,225,0.0,0.0,61,0.00,,,0.00,WUHU21623XXSP,2013-09-06 23:50:00,
2013-09-06 19:55:00,60.6,47.6,30.13,SW,225,0.0,0.0,62,0.00,,,0.00,WUHU21623XXSP,2013-09-06 23:55:00,
2013-09-06 20:00:00,59.9,47.7,30.13,SW,225,0.0,1.8,64,0.00,,,0.00,WUHU21623XXSP,2013-09-07 00:00:00,
2013-09-06 20:05:00,59.4,47.6,30.12,SW,225,0.9,1.8,65,0.00,,,0.00,WUHU21623XXSP,2013-09-07 00:05:00,
2013-09-06 20:10:00,58.8,46.6,30.13,SW,225,0.0,4.0,64,0.00,,,0.00,WUHU21623XXSP,2013-09-07 00:10:00,
2013-09-06 20:15:00,58.8,46.6,30.13,SW,225,0.0,4.0,64,0.00,,,0.00,WUHU21623XXSP,2013-09-07 00:15:00,
2013-09-06 20:20:00,58.8,46.6,30.13,SW,225,0.0,1.1,64,0.00,,,0.00,WUHU21623XXSP,2013-09-07 00:20:00,
2013-09-06 20:25:00,58.8,46.6,30.13,SW,225,0.0,0.0,64,0.00,,,0.00,WUHU21623XXSP,2013-09-07 00:25:00,
2013-09-06 20:30:00,58.6,46.5,30.13,SW,225,0.0,0.0,64,0.00,,,0.00,WUHU21623XXSP,2013-09-07 00:30:00,
2013-09-06 20:35:00,58.3,46.1,30.12,SW,225,0.0,0.0,64,0.00,,,0.00,WUHU21623XXSP,2013-09-07 00:35:00,
2013-09-06 20:40:00,57.9,46.2,30.12,SW,225,0.0,0.0,65,0.00,,,0.00,WUHU21623XXSP,2013-09-07 00:40:00,
2013-09-06 20:45:00,57.7,46.0,30.12,SW,225,0.0,0.0,65,0.00,,,0.00,WUHU21623XXSP,2013-09-07 00:45:00,
2013-09-06 20:50:00,57.7,46.0,30.12,SW,225,0.0,0.0,65,0.00,,,0.00,WUHU21623XXSP,2013-09-07 00:50:00,
2013-09-06 20:55:00,57.6,45.8,30.12,SW,225,0.0,0.0,65,0.00,,,0.00,WUHU21623XXSP,2013-09-07 00:55:00,
2013-09-06 21:00:00,57.4,46.1,30.12,SW,225,0.0,0.0,66,0.00,,,0.00,WUHU21623XXSP,2013-09-07 01:00:00,
2013-09-06 21:05:00,57.4,46.1,30.12,SW,225,0.0,0.0,66,0.00,,,0.00,WUHU21623XXSP,2013-09-07 01:05:00,
2013-09-06 21:10:00,57.4,46.1,30.12,SW,225,0.0,0.0,66,0.00,,,0.00,WUHU21623XXSP,2013-09-07 01:10:00,
2013-09-06 21:15:00,57.4,46.1,30.12,SW,225,0.0,0.0,66,0.00,,,0.00,WUHU21623XXSP,2013-09-07 01:15:00,
2013-09-06 21:20:00,57.0,45.7,30.12,SW,225,0.0,0.0,66,0.00,,,0.00,WUHU21623XXSP,2013-09-07 01:20:00,
2013-09-06 21:25:00,57.0,46.1,30.12,SW,225,0.0,0.0,67,0.00,,,0.00,WUHU21623XXSP,2013-09-07 01:25:00,
2013-09-06 21:30:00,56.5,46.4,30.11,SW,225,0.0,0.0,69,0.00,,,0.00,WUHU21623XXSP,2013-09-07 01:30:00,
2013-09-06 21:35:00,56.1,46.5,30.12,SW,225,0.0,0.0,70,0.00,,,0.00,WUHU21623XXSP,2013-09-07 01:35:00,
2013-09-06 21:40:00,55.9,46.7,30.11,SW,225,0.0,0.0,71,0.00,,,0.00,WUHU21623XXSP,2013-09-07 01:40:00,
2013-09-06 21:45:00,55.8,46.9,30.11,SW,225,0.0,0.0,72,0.00,,,0.00,WUHU21623XXSP,2013-09-07 01:45:00,
2013-09-06 21:50:00,55.6,47.0,30.11,SW,225,0.0,0.0,73,0.00,,,0.00,WUHU21623XXSP,2013-09-07 01:50:00,
2013-09-06 21:55:00,55.2,47.0,30.11,SW,225,0.0,0.0,74,0.00,,,0.00,WUHU21623XXSP,2013-09-07 01:55:00,
2013-09-06 22:00:00,55.0,47.2,30.11,SW,225,0.0,0.0,75,0.00,,,0.00,WUHU21623XXSP,2013-09-07 02:00:00,
2013-09-06 22:05:00,54.5,47.1,30.11,SW,225,0.0,0.0,76,0.00,,,0.00,WUHU21623XXSP,2013-09-07 02:05:00,
2013-09-06 22:10:00,54.3,47.2,30.10,SW,225,0.0,0.0,77,0.00,,,0.00,WUHU21623XXSP,2013-09-07 02:10:00,
2013-09-06 22:15:00,54.1,47.1,30.10,SW,225,0.0,0.0,77,0.00,,,0.00,WUHU21623XXSP,2013-09-07 02:15:00,
2013-09-06 22:20:00,53.8,47.1,30.10,SW,225,0.0,0.0,78,0.00,,,0.00,WUHU21623XXSP,2013-09-07 02:20:00,
2013-09-06 22:25:00,53.4,47.1,30.10,SW,225,0.0,0.0,79,0.00,,,0.00,WUHU21623XXSP,2013-09-07 02:25:00,
2013-09-06 22:30:00,53.2,47.3,30.10,SW,225,0.0,0.0,80,0.00,,,0.00,WUHU21623XXSP,2013-09-07 02:30:00,
2013-09-06 22:35:00,53.2,47.3,30.10,SW,225,0.0,0.0,80,0.00,,,0.00,WUHU21623XXSP,2013-09-07 02:35:00,
2013-09-06 22:40:00,53.2,47.6,30.10,SW,225,0.0,0.0,81,0.00,,,0.00,WUHU21623XXSP,2013-09-07 02:40:00,
2013-09-06 22:45:00,53.2,47.6,30.10,SW,225,0.0,0.0,81,0.00,,,0.00,WUHU21623XXSP,2013-09-07 02:45:00,
2013-09-06 22:50:00,53.2,47.9,30.10,SW,225,0.0,0.0,82,0.00,,,0.00,WUHU21623XXSP,2013-09-07 02:50:00,
2013-09-06 22:55:00,53.1,47.7,30.10,SW,225,0.0,0.0,82,0.00,,,0.00,WUHU21623XXSP,2013-09-07 02:55:00,
2013-09-06 23:00:00,52.9,47.9,30.10,SW,225,0.0,0.0,83,0.00,,,0.00,WUHU21623XXSP,2013-09-07 03:00:00,
2013-09-06 23:05:00,52.7,47.7,30.09,SW,225,0.0,0.0,83,0.00,,,0.00,WUHU21623XXSP,2013-09-07 03:05:00,
2013-09-06 23:10:00,52.7,47.7,30.10,SW,225,0.0,0.0,83,0.00,,,0.00,WUHU21623XXSP,2013-09-07 03:10:00,
2013-09-06 23:15:00,52.5,47.5,30.09,SW,225,0.0,0.0,83,0.00,,,0.00,WUHU21623XXSP,2013-09-07 03:15:00,
2013-09-06 23:20:00,52.5,47.8,30.09,SW,225,0.0,0.0,84,0.00,,,0.00,WUHU21623XXSP,2013-09-07 03:20:00,
2013-09-06 23:25:00,52.5,47.8,30.09,SW,225,0.0,0.0,84,0.00,,,0.00,WUHU21623XXSP,2013-09-07 03:25:00,
2013-09-06 23:29:00,52.9,48.5,30.09,SW,225,0.0,0.0,85,0.00,,,0.00,WUHU21623XXSP,2013-09-07 03:29:00,
2013-09-06 23:35:00,52.9,48.5,30.09,SW,225,0.0,0.0,85,0.00,,,0.00,WUHU21623XXSP,2013-09-07 03:35:00,
2013-09-06 23:40:00,52.9,48.5,30.09,SW,225,0.0,0.0,85,0.00,,,0.00,WUHU21623XXSP,2013-09-07 03:40:00,
2013-09-06 23:45:00,52.9,48.5,30.09,SW,225,0.0,0.0,85,0.00,,,0.00,WUHU21623XXSP,2013-09-07 03:45:00,
2013-09-06 23:50:00,52.9,48.5,30.09,SW,225,0.0,0.0,85,0.00,,,0.00,WUHU21623XXSP,2013-09-07 03:50:00,
2013-09-06 23:55:00,52.9,48.5,30.09,SW,225,0.0,0.0,85,0.00,,,0.00,WUHU21623XXSP,2013-09-07 03:55:00,